createdAt,value
2023-09-18T00:00:53.001Z,24.30
2023-09-18T00:03:21.937Z,24.40
2023-09-18T00:05:49.335Z,24.30
2023-09-18T00:08:17.062Z,24.20
2023-09-18T00:10:48.161Z,24.20
2023-09-18T00:13:15.178Z,24.20
2023-09-18T00:15:42.333Z,24.20
2023-09-18T00:18:09.245Z,24.20
2023-09-18T00:20:36.441Z,24.10
2023-09-18T00:23:03.924Z,24.10
2023-09-18T00:25:32.015Z,24.10
2023-09-18T00:27:59.076Z,24.10
2023-09-18T00:30:26.080Z,24.10
2023-09-18T00:32:53.338Z,24.00
2023-09-18T00:35:20.279Z,24.00
2023-09-18T00:37:49.432Z,24.10
2023-09-18T00:40:16.473Z,24.00
2023-09-18T00:42:43.574Z,23.90
2023-09-18T00:45:10.805Z,23.90
2023-09-18T00:47:38.251Z,23.90
2023-09-18T00:50:08.206Z,23.90
2023-09-18T00:52:35.417Z,23.90
2023-09-18T00:55:03.222Z,24.00
2023-09-18T00:57:30.471Z,23.90
2023-09-18T00:59:57.355Z,23.90
2023-09-18T01:02:24.983Z,24.00
2023-09-18T01:04:51.991Z,23.90
2023-09-18T01:07:19.284Z,23.90
2023-09-18T01:09:46.207Z,23.80
2023-09-18T01:12:23.473Z,23.80
2023-09-18T01:15:12.386Z,23.80
2023-09-18T01:17:40.107Z,23.80
2023-09-18T01:20:10.106Z,23.70
2023-09-18T01:22:37.018Z,23.80
2023-09-18T01:25:04.152Z,23.70
2023-09-18T01:27:31.045Z,23.70
2023-09-18T01:29:57.909Z,23.70
2023-09-18T01:32:29.279Z,23.70
2023-09-18T01:34:58.413Z,23.70
2023-09-18T01:37:29.446Z,23.70
2023-09-18T01:40:00.419Z,23.60
2023-09-18T01:42:30.977Z,23.60
2023-09-18T01:44:57.908Z,23.60
2023-09-18T01:47:25.166Z,23.50
2023-09-18T01:49:52.031Z,23.50
2023-09-18T01:52:19.142Z,23.50
2023-09-18T01:54:46.288Z,23.50
2023-09-18T01:57:13.650Z,23.50
2023-09-18T01:59:42.479Z,23.40
2023-09-18T02:02:12.313Z,23.40
2023-09-18T02:05:06.025Z,23.50
2023-09-18T02:07:28.666Z,23.50
2023-09-18T02:09:55.691Z,23.40
2023-09-18T02:12:22.628Z,23.50
2023-09-18T02:14:49.500Z,23.60
2023-09-18T02:17:16.649Z,23.60
2023-09-18T02:19:44.327Z,23.50
2023-09-18T02:22:11.248Z,23.60
2023-09-18T02:24:38.180Z,23.60
2023-09-18T02:27:06.628Z,23.60
2023-09-18T02:29:33.489Z,23.60
2023-09-18T02:32:00.498Z,23.70
2023-09-18T02:34:27.441Z,23.60
2023-09-18T02:36:54.281Z,23.60
2023-09-18T02:39:21.272Z,23.60
2023-09-18T02:41:48.110Z,23.60
2023-09-18T02:44:14.968Z,23.60
2023-09-18T02:46:44.594Z,23.50
2023-09-18T02:49:11.553Z,23.50
2023-09-18T02:51:38.509Z,23.50
2023-09-18T02:54:05.732Z,23.40
2023-09-18T02:56:32.729Z,23.40
2023-09-18T02:58:59.700Z,23.30
2023-09-18T03:01:26.664Z,23.30
2023-09-18T03:03:53.759Z,23.20
2023-09-18T03:06:20.839Z,23.20
2023-09-18T03:08:47.669Z,23.30
2023-09-18T03:11:15.646Z,23.20
2023-09-18T03:13:50.304Z,23.20
2023-09-18T03:16:17.824Z,23.10
2023-09-18T03:18:44.813Z,23.10
2023-09-18T03:21:11.648Z,23.10
2023-09-18T03:23:38.696Z,23.10
2023-09-18T03:26:05.592Z,23.00
2023-09-18T03:28:32.785Z,23.10
2023-09-18T03:31:00.215Z,23.00
2023-09-18T03:33:27.105Z,23.00
2023-09-18T03:35:56.028Z,23.00
2023-09-18T03:38:23.374Z,23.00
2023-09-18T03:40:50.679Z,23.00
2023-09-18T03:43:18.286Z,22.90
2023-09-18T03:45:45.229Z,23.00
2023-09-18T03:48:12.981Z,22.90
2023-09-18T03:50:41.583Z,22.90
2023-09-18T03:53:09.982Z,22.90
2023-09-18T03:55:36.918Z,22.90
2023-09-18T03:58:06.201Z,22.90
2023-09-18T04:00:33.102Z,22.80
2023-09-18T04:02:59.969Z,22.90
2023-09-18T04:05:26.927Z,22.90
2023-09-18T04:07:53.864Z,22.90
2023-09-18T04:10:24.601Z,22.90
2023-09-18T04:12:52.509Z,22.90
2023-09-18T04:15:20.132Z,22.90
2023-09-18T04:17:47.653Z,22.90
2023-09-18T04:20:15.108Z,22.90
2023-09-18T04:22:50.965Z,22.90
2023-09-18T04:25:20.702Z,22.90
2023-09-18T04:27:51.375Z,22.90
2023-09-18T04:30:20.711Z,22.80
2023-09-18T04:32:48.320Z,22.90
2023-09-18T04:35:15.598Z,22.80
2023-09-18T04:37:42.544Z,22.80
2023-09-18T04:40:13.579Z,22.70
2023-09-18T04:42:41.630Z,22.70
2023-09-18T04:45:09.266Z,22.70
2023-09-18T04:47:37.014Z,22.70
2023-09-18T04:50:09.353Z,22.70
2023-09-18T04:52:38.257Z,22.60
2023-09-18T04:55:07.397Z,22.60
2023-09-18T04:57:35.288Z,22.70
2023-09-18T05:00:16.612Z,22.60
2023-09-18T05:02:45.490Z,22.60
2023-09-18T05:05:12.875Z,22.60
2023-09-18T05:07:40.254Z,22.60
2023-09-18T05:10:07.634Z,22.70
2023-09-18T05:12:34.830Z,22.70
2023-09-18T05:15:01.789Z,22.60
2023-09-18T05:17:53.284Z,22.70
2023-09-18T05:20:20.590Z,22.70
2023-09-18T05:22:47.518Z,22.60
2023-09-18T05:25:17.503Z,22.60
2023-09-18T05:27:47.251Z,22.70
2023-09-18T05:30:22.666Z,22.60
2023-09-18T05:32:49.927Z,22.70
2023-09-18T05:35:18.337Z,22.60
2023-09-18T05:37:45.679Z,22.60
2023-09-18T05:40:13.944Z,22.60
2023-09-18T05:42:44.687Z,22.60
2023-09-18T05:45:12.902Z,22.70
2023-09-18T05:47:40.347Z,22.70
2023-09-18T05:50:09.126Z,22.70
2023-09-18T05:52:36.711Z,22.70
2023-09-18T05:55:05.834Z,22.80
2023-09-18T05:57:33.145Z,22.80
2023-09-18T06:00:00.238Z,22.80
2023-09-18T06:02:27.260Z,22.90
2023-09-18T06:04:58.950Z,23.00
2023-09-18T06:07:26.194Z,23.00
2023-09-18T06:09:53.326Z,23.10
2023-09-18T06:12:20.355Z,23.10
2023-09-18T06:14:49.136Z,23.10
2023-09-18T06:17:16.521Z,23.30
2023-09-18T06:19:44.252Z,23.30
2023-09-18T06:22:11.185Z,23.40
2023-09-18T06:24:38.442Z,23.40
2023-09-18T06:27:05.893Z,23.50
2023-09-18T06:29:36.238Z,23.60
2023-09-18T06:32:03.486Z,23.60
2023-09-18T06:34:30.396Z,23.70
2023-09-18T06:36:57.229Z,23.90
2023-09-18T06:39:25.185Z,23.90
2023-09-18T06:41:52.117Z,24.00
2023-09-18T06:44:19.058Z,24.10
2023-09-18T06:46:46.005Z,24.20
2023-09-18T06:49:12.880Z,24.30
2023-09-18T06:51:43.538Z,24.40
2023-09-18T06:54:11.182Z,24.40
2023-09-18T06:56:38.296Z,24.40
2023-09-18T06:59:05.279Z,24.50
2023-09-18T07:01:33.184Z,24.40
2023-09-18T07:04:01.225Z,24.40
2023-09-18T07:06:28.542Z,24.50
2023-09-18T07:08:56.138Z,24.30
2023-09-18T07:11:25.950Z,24.50
2023-09-18T07:13:53.380Z,24.50
2023-09-18T07:16:20.581Z,24.60
2023-09-18T07:18:47.479Z,24.80
2023-09-18T07:21:14.494Z,24.90
2023-09-18T07:23:42.888Z,25.00
2023-09-18T07:26:10.027Z,25.20
2023-09-18T07:28:36.904Z,25.20
2023-09-18T07:31:08.289Z,25.20
2023-09-18T07:33:35.454Z,25.30
2023-09-18T07:36:02.602Z,25.40
2023-09-18T07:38:29.561Z,25.40
2023-09-18T07:40:57.659Z,25.50
2023-09-18T07:43:26.121Z,25.60
2023-09-18T07:45:54.333Z,25.70
2023-09-18T07:48:21.972Z,25.80
2023-09-18T07:53:18.310Z,26.00
2023-09-18T07:55:45.239Z,26.00
2023-09-18T07:58:12.926Z,26.00
2023-09-18T08:00:40.573Z,26.20
2023-09-18T08:05:34.382Z,26.40
2023-09-18T08:08:01.837Z,26.40
2023-09-18T08:10:28.937Z,26.50
2023-09-18T08:12:56.797Z,26.70
2023-09-18T08:15:23.792Z,26.70
2023-09-18T08:17:51.045Z,26.80
2023-09-18T08:20:18.218Z,26.80
2023-09-18T08:22:45.895Z,26.90
2023-09-18T08:25:13.528Z,27.00
2023-09-18T08:27:43.247Z,27.00
2023-09-18T08:30:11.309Z,27.20
2023-09-18T08:32:39.182Z,27.30
2023-09-18T08:35:07.108Z,27.40
2023-09-18T08:37:34.119Z,27.50
2023-09-18T08:40:10.965Z,27.50
2023-09-18T08:42:57.873Z,27.60
2023-09-18T08:45:36.719Z,27.70
2023-09-18T08:48:04.403Z,27.80
2023-09-18T08:50:32.124Z,27.90
2023-09-18T08:52:59.461Z,27.90
2023-09-18T08:55:26.475Z,28.00
2023-09-18T08:57:55.625Z,28.10
2023-09-18T09:00:22.526Z,28.00
2023-09-18T09:02:53.764Z,28.00
2023-09-18T09:05:21.890Z,28.10
2023-09-18T09:07:49.713Z,28.20
2023-09-18T09:10:16.684Z,28.30
2023-09-18T09:12:50.955Z,28.30
2023-09-18T09:15:18.137Z,28.40
2023-09-18T09:17:48.240Z,28.50
2023-09-18T09:20:16.517Z,28.50
2023-09-18T09:22:43.610Z,28.60
2023-09-18T09:25:27.361Z,28.70
2023-09-18T09:27:54.918Z,28.70
2023-09-18T09:30:24.676Z,28.60
2023-09-18T09:32:53.501Z,28.60
2023-09-18T09:35:31.590Z,28.60
2023-09-18T09:38:01.879Z,28.80
2023-09-18T09:40:32.245Z,28.90
2023-09-18T09:43:03.051Z,28.90
2023-09-18T09:45:31.273Z,29.00
2023-09-18T09:47:59.582Z,29.10
2023-09-18T09:50:29.008Z,29.20
2023-09-18T09:52:56.725Z,29.30
2023-09-18T09:55:31.886Z,29.20
2023-09-18T09:58:03.313Z,29.30
2023-09-18T10:00:44.344Z,29.40
2023-09-18T10:03:16.449Z,29.40
2023-09-18T10:05:45.869Z,29.50
2023-09-18T10:08:23.312Z,29.50
2023-09-18T10:10:52.876Z,29.60
2023-09-18T10:13:41.784Z,29.80
2023-09-18T10:16:11.349Z,29.90
2023-09-18T10:18:53.932Z,29.80
2023-09-18T10:21:33.067Z,29.90
2023-09-18T10:24:26.937Z,30.00
2023-09-18T10:26:57.910Z,30.10
2023-09-18T10:29:25.856Z,30.30
2023-09-18T10:31:54.966Z,30.20
2023-09-18T10:34:25.006Z,30.20
2023-09-18T10:36:54.028Z,30.30
2023-09-18T10:39:25.090Z,30.30
2023-09-18T10:41:57.017Z,30.40
2023-09-18T10:44:27.525Z,30.50
2023-09-18T10:46:54.827Z,30.70
2023-09-18T10:49:22.082Z,30.80
2023-09-18T10:51:49.601Z,31.00
2023-09-18T10:54:18.753Z,31.00
2023-09-18T10:56:47.648Z,31.10
2023-09-18T10:59:16.737Z,31.10
2023-09-18T11:01:44.261Z,31.10
2023-09-18T11:04:11.913Z,31.20
2023-09-18T11:06:57.271Z,31.20
2023-09-18T11:09:31.575Z,31.20
2023-09-18T11:11:59.128Z,31.10
2023-09-18T11:14:46.223Z,31.10
2023-09-18T11:17:35.576Z,31.00
2023-09-18T11:20:19.152Z,30.90
2023-09-18T11:22:56.389Z,30.80
2023-09-18T11:25:46.637Z,31.00
2023-09-18T11:28:23.115Z,31.00
2023-09-18T11:31:01.641Z,31.10
2023-09-18T11:33:38.580Z,31.10
2023-09-18T11:36:16.164Z,31.20
2023-09-18T11:39:10.528Z,31.10
2023-09-18T11:41:39.857Z,31.10
2023-09-18T11:44:15.860Z,31.10
2023-09-18T11:46:47.305Z,31.10
2023-09-18T11:49:14.468Z,31.20
2023-09-18T11:51:42.851Z,31.10
2023-09-18T11:54:10.997Z,31.20
2023-09-18T11:56:40.717Z,31.20
2023-09-18T11:59:07.934Z,31.30
2023-09-18T12:01:37.393Z,31.50
2023-09-18T12:04:14.750Z,31.50
2023-09-18T12:06:43.355Z,31.50
2023-09-18T12:09:11.263Z,31.60
2023-09-18T12:11:43.204Z,31.60
2023-09-18T12:14:10.315Z,31.50
2023-09-18T12:16:40.909Z,31.60
2023-09-18T12:19:08.569Z,31.60
2023-09-18T12:21:41.858Z,31.70
2023-09-18T12:24:17.442Z,31.80
2023-09-18T12:26:44.425Z,31.80
2023-09-18T12:29:12.097Z,31.60
2023-09-18T12:31:39.875Z,31.70
2023-09-18T12:34:14.880Z,31.80
2023-09-18T12:36:44.744Z,32.00
2023-09-18T12:39:11.639Z,32.20
2023-09-18T12:41:39.465Z,32.20
2023-09-18T12:44:08.082Z,32.30
2023-09-18T12:46:36.103Z,32.20
2023-09-18T12:49:17.206Z,32.20
2023-09-18T12:51:45.464Z,32.10
2023-09-18T12:54:14.717Z,31.90
2023-09-18T12:56:43.001Z,31.80
2023-09-18T12:59:15.373Z,31.70
2023-09-18T13:01:48.282Z,31.70
2023-09-18T13:04:16.566Z,31.60
2023-09-18T13:06:43.639Z,31.50
2023-09-18T13:09:24.204Z,31.50
2023-09-18T13:11:58.543Z,31.50
2023-09-18T13:14:28.787Z,31.50
2023-09-18T13:17:05.488Z,31.50
2023-09-18T13:19:32.931Z,31.50
2023-09-18T13:21:59.766Z,31.60
2023-09-18T13:24:27.619Z,31.60
2023-09-18T13:26:55.890Z,31.60
2023-09-18T13:29:24.524Z,31.80
2023-09-18T13:31:52.605Z,31.80
2023-09-18T13:34:19.559Z,31.80
2023-09-18T13:36:47.061Z,31.90
2023-09-18T13:39:14.704Z,31.80
2023-09-18T13:41:44.689Z,31.80
2023-09-18T13:44:11.607Z,31.90
2023-09-18T13:46:39.305Z,31.90
2023-09-18T13:49:06.502Z,31.90
2023-09-18T13:51:34.098Z,31.90
2023-09-18T13:54:01.286Z,31.80
2023-09-18T13:56:29.200Z,31.80
2023-09-18T13:58:57.115Z,31.80
2023-09-18T14:01:26.966Z,31.80
2023-09-18T14:03:54.751Z,31.90
2023-09-18T14:06:21.872Z,31.80
2023-09-18T14:08:49.108Z,31.80
2023-09-18T14:11:17.176Z,31.80
2023-09-18T14:13:44.331Z,31.80
2023-09-18T14:16:12.168Z,31.70
2023-09-18T14:18:39.667Z,31.70
2023-09-18T14:21:07.811Z,31.80
2023-09-18T14:23:35.765Z,31.70
2023-09-18T14:26:03.014Z,31.60
2023-09-18T14:28:29.876Z,31.60
2023-09-18T14:30:56.956Z,31.60
2023-09-18T14:33:23.903Z,31.60
2023-09-18T14:35:51.394Z,31.50
2023-09-18T14:38:18.343Z,31.40
2023-09-18T14:40:45.192Z,31.40
2023-09-18T14:43:12.830Z,31.40
2023-09-18T14:45:41.225Z,31.40
2023-09-18T14:48:08.252Z,31.30
2023-09-18T14:50:35.247Z,31.20
2023-09-18T14:53:02.164Z,31.20
2023-09-18T14:55:29.113Z,31.10
2023-09-18T14:57:55.966Z,31.00
2023-09-18T15:00:22.823Z,30.80
2023-09-18T15:02:49.908Z,30.80
2023-09-18T15:05:19.089Z,30.60
2023-09-18T15:07:46.014Z,30.50
2023-09-18T15:10:12.995Z,30.50
2023-09-18T15:12:41.877Z,30.30
2023-09-18T15:15:09.054Z,30.30
2023-09-18T15:17:35.978Z,30.20
2023-09-18T15:20:02.974Z,30.10
2023-09-18T15:22:32.389Z,30.10
2023-09-18T15:25:00.874Z,30.00
2023-09-18T15:27:28.100Z,29.90
2023-09-18T15:29:55.004Z,29.90
2023-09-18T15:32:22.788Z,29.60
2023-09-18T15:34:49.676Z,29.70
2023-09-18T15:37:17.335Z,29.60
2023-09-18T15:39:44.863Z,29.50
2023-09-18T15:42:11.780Z,29.60
2023-09-18T15:44:39.158Z,29.50
2023-09-18T15:47:07.164Z,29.50
2023-09-18T15:49:34.213Z,29.50
2023-09-18T15:52:01.037Z,29.50
2023-09-18T15:54:27.922Z,29.40
2023-09-18T15:56:56.477Z,29.40
2023-09-18T15:59:23.460Z,29.40
2023-09-18T16:01:50.422Z,29.50
2023-09-18T16:04:17.617Z,29.50
2023-09-18T16:06:45.244Z,29.50
2023-09-18T16:09:14.039Z,29.40
2023-09-18T16:11:48.061Z,29.40
2023-09-18T16:14:15.406Z,29.40
2023-09-18T16:16:42.360Z,29.30
2023-09-18T16:19:09.190Z,29.20
2023-09-18T16:21:37.380Z,29.20
2023-09-18T16:24:08.043Z,29.10
2023-09-18T16:26:35.176Z,29.20
2023-09-18T16:29:02.117Z,29.10
2023-09-18T16:31:30.574Z,29.10
2023-09-18T16:33:57.717Z,29.10
2023-09-18T16:36:24.643Z,29.00
2023-09-18T16:38:51.512Z,29.00
2023-09-18T16:41:19.212Z,28.90
2023-09-18T16:43:46.087Z,28.90
2023-09-18T16:46:12.977Z,28.90
2023-09-18T16:48:39.886Z,28.90
2023-09-18T16:51:07.782Z,28.90
2023-09-18T16:53:34.754Z,28.90
2023-09-18T16:56:01.865Z,28.80
2023-09-18T16:58:28.736Z,28.80
2023-09-18T17:00:57.544Z,28.80
2023-09-18T17:03:24.625Z,28.70
2023-09-18T17:05:51.495Z,28.70
2023-09-18T17:08:18.401Z,28.60
2023-09-18T17:10:45.245Z,28.60
2023-09-18T17:13:12.152Z,28.60
2023-09-18T17:15:39.327Z,28.50
2023-09-18T17:18:06.160Z,28.50
2023-09-18T17:20:33.893Z,28.50
2023-09-18T17:23:00.792Z,28.50
2023-09-18T17:25:27.745Z,28.50
2023-09-18T17:27:55.609Z,28.50
2023-09-18T17:30:24.784Z,28.40
2023-09-18T17:32:51.698Z,28.30
2023-09-18T17:35:18.707Z,28.40
2023-09-18T17:37:46.788Z,28.30
2023-09-18T17:40:14.035Z,28.30
2023-09-18T17:42:40.859Z,28.30
2023-09-18T17:45:08.395Z,28.20
2023-09-18T17:47:35.542Z,28.30
2023-09-18T17:50:02.356Z,28.30
2023-09-18T17:52:29.614Z,28.20
2023-09-18T17:54:57.236Z,28.20
2023-09-18T17:57:24.191Z,28.10
2023-09-18T17:59:53.257Z,28.10
2023-09-18T18:02:20.390Z,28.10
2023-09-18T18:04:48.657Z,28.00
2023-09-18T18:07:15.784Z,28.00
2023-09-18T18:09:42.745Z,28.00
2023-09-18T18:12:10.083Z,27.90
2023-09-18T18:14:37.068Z,27.80
2023-09-18T18:17:03.989Z,27.80
2023-09-18T18:19:31.273Z,27.80
2023-09-18T18:21:58.152Z,27.70
2023-09-18T18:24:24.977Z,27.60
2023-09-18T18:26:53.585Z,27.60
2023-09-18T18:29:21.789Z,27.50
2023-09-18T18:31:50.855Z,27.50
2023-09-18T18:34:18.753Z,27.40
2023-09-18T18:36:49.581Z,27.40
2023-09-18T18:39:17.201Z,27.30
2023-09-18T18:41:44.077Z,27.40
2023-09-18T18:44:10.961Z,27.30
2023-09-18T18:46:37.889Z,27.30
2023-09-18T18:49:04.876Z,27.30
2023-09-18T18:51:33.158Z,27.20
2023-09-18T18:54:01.752Z,27.20
2023-09-18T18:56:28.643Z,27.20
2023-09-18T18:58:55.680Z,27.20
2023-09-18T19:01:26.173Z,27.20
2023-09-18T19:03:54.902Z,27.20
2023-09-18T19:06:22.205Z,27.20
2023-09-18T19:08:49.040Z,27.10
2023-09-18T19:11:16.267Z,27.10
2023-09-18T19:13:44.748Z,27.00
2023-09-18T19:16:12.791Z,27.10
2023-09-18T19:18:41.447Z,27.00
2023-09-18T19:21:12.397Z,27.00
2023-09-18T19:23:40.686Z,26.90
2023-09-18T19:26:09.355Z,26.90
2023-09-18T19:28:36.625Z,26.90
2023-09-18T19:31:07.597Z,26.80
2023-09-18T19:33:39.619Z,26.80
2023-09-18T19:36:07.550Z,26.80
2023-09-18T19:38:37.313Z,26.70
2023-09-18T19:41:05.316Z,26.60
2023-09-18T19:43:33.042Z,26.60
2023-09-18T19:46:00.184Z,26.50
2023-09-18T19:48:27.498Z,26.50
2023-09-18T19:51:01.266Z,26.50
2023-09-18T19:53:29.142Z,26.40
2023-09-18T19:55:56.549Z,26.50
2023-09-18T19:58:23.484Z,26.40
2023-09-18T20:00:50.427Z,26.40
2023-09-18T20:03:17.429Z,26.40
2023-09-18T20:05:44.795Z,26.40
2023-09-18T20:11:02.577Z,26.40
2023-09-18T20:13:30.678Z,26.30
2023-09-18T20:16:00.721Z,26.30
2023-09-18T20:18:29.026Z,26.30
2023-09-18T20:21:02.689Z,26.30
2023-09-18T20:23:31.585Z,26.20
2023-09-18T20:26:02.271Z,26.30
2023-09-18T20:28:30.330Z,26.20
2023-09-18T20:30:58.227Z,26.20
2023-09-18T20:33:25.356Z,26.20
2023-09-18T20:36:07.039Z,26.20
2023-09-18T20:38:34.111Z,26.20
2023-09-18T20:41:01.064Z,26.10
2023-09-18T20:43:30.576Z,26.20
2023-09-18T20:45:58.059Z,26.10
2023-09-18T20:48:25.057Z,26.10
2023-09-18T20:50:52.885Z,26.10
2023-09-18T20:53:19.947Z,26.10
2023-09-18T20:55:47.916Z,26.10
2023-09-18T20:58:16.027Z,26.10
2023-09-18T21:00:42.861Z,26.10
2023-09-18T21:03:09.749Z,26.10
2023-09-18T21:05:36.761Z,26.10
2023-09-18T21:08:03.817Z,26.10
2023-09-18T21:10:33.810Z,26.10
2023-09-18T21:13:00.867Z,26.10
2023-09-18T21:15:27.707Z,26.00
2023-09-18T21:17:54.554Z,26.00
2023-09-18T21:20:21.441Z,26.00
2023-09-18T21:22:48.229Z,26.00
2023-09-18T21:25:15.073Z,26.10
2023-09-18T21:27:41.938Z,26.00
2023-09-18T21:30:09.423Z,25.90
2023-09-18T21:32:37.541Z,26.00
2023-09-18T21:35:04.937Z,26.00
2023-09-18T21:37:31.862Z,25.90
2023-09-18T21:39:58.846Z,26.00
2023-09-18T21:42:25.682Z,26.00
2023-09-18T21:44:52.738Z,25.90
2023-09-18T21:47:19.643Z,25.90
2023-09-18T21:49:46.432Z,25.80
2023-09-18T21:52:15.080Z,25.90
2023-09-18T21:54:42.023Z,25.80
2023-09-18T21:57:08.927Z,25.80
2023-09-18T21:59:35.895Z,25.90
2023-09-18T22:02:02.865Z,25.80
2023-09-18T22:04:30.112Z,25.90
2023-09-18T22:06:57.072Z,25.70
2023-09-18T22:09:26.163Z,25.80
2023-09-18T22:11:53.237Z,25.70
2023-09-18T22:14:20.090Z,25.70
2023-09-18T22:16:46.940Z,25.80
2023-09-18T22:19:13.800Z,25.80
2023-09-18T22:21:40.628Z,25.80
2023-09-18T22:24:07.806Z,25.80
2023-09-18T22:26:34.724Z,25.80
2023-09-18T22:29:01.624Z,25.70
2023-09-18T22:31:29.280Z,25.70
2023-09-18T22:33:56.280Z,25.70
2023-09-18T22:36:28.292Z,25.70
2023-09-18T22:39:11.173Z,25.70
2023-09-18T22:41:39.902Z,25.70
2023-09-18T22:44:44.593Z,25.70
2023-09-18T22:47:49.633Z,25.70
2023-09-18T22:50:54.115Z,25.60
2023-09-18T22:53:23.405Z,25.50
2023-09-18T22:55:51.188Z,25.40
2023-09-18T22:58:28.955Z,25.50
2023-09-18T23:00:57.848Z,25.50
2023-09-18T23:03:25.230Z,25.50
2023-09-18T23:05:55.740Z,25.50
2023-09-18T23:08:23.384Z,25.50
2023-09-18T23:10:50.345Z,25.50
2023-09-18T23:13:17.365Z,25.50
2023-09-18T23:15:44.648Z,25.50
2023-09-18T23:18:12.384Z,25.50
2023-09-18T23:20:41.130Z,25.60
2023-09-18T23:23:08.707Z,25.50
2023-09-18T23:25:38.883Z,25.50
2023-09-18T23:28:07.467Z,25.50
2023-09-18T23:30:34.854Z,25.50
2023-09-18T23:33:03.416Z,25.50
2023-09-18T23:35:35.104Z,25.50
2023-09-18T23:38:05.052Z,25.40
2023-09-18T23:40:33.534Z,25.40
2023-09-18T23:43:04.875Z,25.40
2023-09-18T23:45:39.255Z,25.30
2023-09-18T23:48:19.719Z,25.40
2023-09-18T23:50:51.506Z,25.40
2023-09-18T23:53:20.606Z,25.30
2023-09-18T23:55:51.211Z,25.30
2023-09-18T23:58:18.716Z,25.30
